Time;durP1;ratioP1;P1;durP2;ratioP2;P2;SDS_P1;SDS_P2;PMS_P1;PMS_P2;Temp;Humidity;BMP_temperature;BMP_pressure;BME280_temperature;BME280_humidity;BME280_pressure;Samples;Min_cycle;Max_cycle;Signal;HPM_P1;HPM_P2
2022/09/01 00:02:14;;;;;;;24.50;17.77;;;;;;;20.15;100.00;98941.16;5042322;28;20647;-81
2022/09/01 00:04:43;;;;;;;24.77;16.37;;;;;;;19.59;100.00;98859.03;5037663;28;20226;-81
2022/09/01 00:07:10;;;;;;;24.70;16.53;;;;;;;19.70;100.00;98872.69;5032149;28;20178;-81
2022/09/01 00:09:36;;;;;;;25.00;16.60;;;;;;;18.67;100.00;98699.09;5017340;28;20237;-81
2022/09/01 00:12:03;;;;;;;24.60;17.33;;;;;;;20.05;100.00;98931.75;5017326;28;20166;-81
2022/09/01 00:14:32;;;;;;;22.80;16.73;;;;;;;19.83;100.00;98879.56;5017250;28;20169;-81
2022/09/01 00:17:01;;;;;;;24.33;17.07;;;;;;;19.71;100.00;98887.25;5016058;28;20175;-82
2022/09/01 00:19:28;;;;;;;22.63;16.60;;;;;;;19.04;100.00;98766.63;5017557;28;20222;-82
2022/09/01 00:21:54;;;;;;;23.30;16.17;;;;;;;18.75;100.00;98707.66;5034476;28;20221;-82
2022/09/01 00:24:20;;;;;;;24.70;16.20;;;;;;;19.53;100.00;98810.25;5021195;28;20189;-82
2022/09/01 00:26:46;;;;;;;28.07;16.90;;;;;;;19.90;100.00;98870.97;5014783;28;20194;-79
2022/09/01 00:29:12;;;;;;;23.07;15.93;;;;;;;20.05;100.00;98922.34;5023726;28;20185;-81
2022/09/01 00:31:38;;;;;;;23.27;15.93;;;;;;;20.10;100.00;98920.63;5028148;28;20186;-82
2022/09/01 00:34:04;;;;;;;28.23;17.00;;;;;;;18.71;100.00;98687.97;5032775;28;20273;-82
2022/09/01 00:36:30;;;;;;;25.80;17.07;;;;;;;19.54;100.00;98850.47;5025710;28;20214;-82
2022/09/01 00:38:55;;;;;;;25.73;16.87;;;;;;;19.63;100.00;98876.16;5013755;28;20226;-82
2022/09/01 00:41:24;;;;;;;27.80;17.30;;;;;;;19.98;100.00;98939.47;5012560;28;20187;-82
2022/09/01 00:44:04;;;;;;;26.83;17.80;;;;;;;19.90;100.00;98937.78;5026500;28;20193;-81
2022/09/01 00:46:39;;;;;;;27.10;19.20;;;;;;;19.89;100.00;98933.47;5027729;28;20174;-81
2022/09/01 00:49:08;;;;;;;31.03;20.57;;;;;;;19.36;100.00;98864.16;5036107;28;20185;-82
2022/09/01 00:51:37;;;;;;;34.83;20.90;;;;;;;19.45;100.00;98889.00;5027946;28;20190;-82
2022/09/01 00:54:05;;;;;;;35.13;22.03;;;;;;;19.31;100.00;98918.03;5033194;28;20241;-82
2022/09/01 00:56:32;;;;;;;32.07;23.53;;;;;;;17.85;100.00;98657.09;5018694;28;20186;-82
2022/09/01 00:58:59;;;;;;;36.77;23.10;;;;;;;19.37;100.00;98918.03;5029676;28;20197;-82
2022/09/01 01:01:25;;;;;;;37.10;24.17;;;;;;;19.59;100.00;98930.91;5026666;28;20291;-81
2022/09/01 01:03:51;;;;;;;37.03;24.63;;;;;;;18.82;100.00;98803.38;5012911;28;20195;-80
2022/09/01 01:06:18;;;;;;;34.37;24.07;;;;;;;19.13;100.00;98891.50;5024429;28;20230;-82
2022/09/01 01:08:56;;;;;;;34.43;22.83;;;;;;;19.38;100.00;98935.22;5013488;28;20260;-81
2022/09/01 01:11:24;;;;;;;41.17;23.57;;;;;;;19.05;100.00;98890.63;5028536;28;20687;-82
2022/09/01 01:13:56;;;;;;;34.37;23.57;;;;;;;19.39;100.00;98934.34;5033440;28;20178;-81
2022/09/01 01:16:25;;;;;;;31.47;22.73;;;;;;;19.38;100.00;98936.91;5026280;28;20183;-81
2022/09/01 01:18:51;;;;;;;37.53;24.93;;;;;;;18.49;100.00;98857.13;5033001;28;20225;-82
2022/09/01 01:24:22;;;;;;;36.80;25.73;;;;;;;18.66;100.00;98919.59;5025235;28;20192;-81
2022/09/01 01:26:48;;;;;;;40.03;26.90;;;;;;;18.53;100.00;98897.31;5032028;28;20162;-81
2022/09/01 01:29:14;;;;;;;39.77;27.20;;;;;;;18.23;100.00;98859.59;5013237;28;20193;-81
2022/09/01 01:31:40;;;;;;;44.10;27.63;;;;;;;18.17;100.00;98864.69;5015291;28;20662;-81
2022/09/01 01:34:06;;;;;;;44.00;28.57;;;;;;;17.63;100.00;98803.78;5012019;28;20249;-82
2022/09/01 01:36:35;;;;;;;42.60;28.70;;;;;;;17.71;100.00;98788.44;5012681;28;20174;-81
2022/09/01 01:39:12;;;;;;;45.57;29.03;;;;;;;18.51;100.00;98920.41;5012785;28;20209;-81
2022/09/01 01:41:43;;;;;;;41.67;28.43;;;;;;;18.65;100.00;98925.59;5012663;28;20258;-82
2022/09/01 01:44:10;;;;;;;40.13;27.03;;;;;;;18.45;100.00;98879.31;5012880;28;20167;-82
2022/09/01 01:46:41;;;;;;;40.10;27.43;;;;;;;17.60;100.00;98770.47;5044123;28;20558;-82
2022/09/01 01:49:07;;;;;;;41.83;28.53;;;;;;;18.51;100.00;98902.47;5012521;28;20167;-82
2022/09/01 01:51:33;;;;;;;42.70;28.17;;;;;;;17.52;100.00;98720.91;5013421;28;20166;-82
2022/09/01 01:54:00;;;;;;;42.30;28.30;;;;;;;17.29;100.00;98673.88;5012904;28;20170;-81
2022/09/01 01:56:26;;;;;;;36.53;27.03;;;;;;;17.94;100.00;98777.47;5012510;28;20194;-82
2022/09/01 01:58:55;;;;;;;40.73;26.03;;;;;;;19.04;100.00;98923.13;5031841;28;20229;-83
2022/09/01 02:01:23;;;;;;;38.83;26.27;;;;;;;19.17;100.00;98932.56;5032506;28;20166;-84
2022/09/01 02:03:53;;;;;;;46.20;27.83;;;;;;;18.70;100.00;98837.56;5032397;28;20162;-84
2022/09/01 02:06:23;;;;;;;40.00;26.23;;;;;;;17.34;100.00;98605.66;5032213;28;20594;-84
2022/09/01 02:08:51;;;;;;;39.60;26.67;;;;;;;19.21;100.00;98931.72;5032547;28;20158;-84
2022/09/01 02:11:16;;;;;;;36.27;25.80;;;;;;;19.21;100.00;98920.59;5031687;28;20212;-84
2022/09/01 02:13:43;;;;;;;42.90;26.07;;;;;;;19.11;100.00;98932.56;5032004;28;20190;-83
2022/09/01 02:16:12;;;;;;;41.63;26.27;;;;;;;18.69;100.00;98851.22;5019941;28;20232;-85
2022/09/01 02:18:43;;;;;;;37.60;25.97;;;;;;;18.58;100.00;98826.41;5012267;28;20616;-85
2022/09/01 02:21:11;;;;;;;36.20;25.43;;;;;;;19.02;100.00;98881.22;5012174;28;20544;-82
2022/09/01 02:23:39;;;;;;;38.83;26.00;;;;;;;19.38;100.00;98942.91;5012322;28;20166;-84
2022/09/01 02:26:05;;;;;;;38.67;25.80;;;;;;;18.80;100.00;98859.81;5010907;28;20190;-82
2022/09/01 02:28:33;;;;;;;36.90;24.87;;;;;;;19.14;100.00;98937.72;5011910;28;20174;-81
2022/09/01 02:31:01;;;;;;;37.77;25.70;;;;;;;16.63;100.00;98497.94;5011906;28;20163;-83
2022/09/01 02:33:27;;;;;;;35.60;25.10;;;;;;;19.13;100.00;98938.56;5011839;28;20246;-80
2022/09/01 02:35:55;;;;;;;36.00;25.33;;;;;;;19.15;100.00;98933.41;5012236;28;20165;-80
2022/09/01 02:38:24;;;;;;;35.63;24.70;;;;;;;18.71;100.00;98870.03;5015575;28;20556;-81
2022/09/01 02:40:52;;;;;;;37.23;25.17;;;;;;;18.90;100.00;98929.09;5015174;28;20201;-81
2022/09/01 02:43:19;;;;;;;35.33;25.43;;;;;;;18.15;100.00;98815.13;5011257;28;20654;-83
2022/09/01 02:45:46;;;;;;;36.63;25.63;;;;;;;16.36;100.00;98531.84;5010007;28;20654;-81
2022/09/01 02:48:12;;;;;;;39.67;25.67;;;;;;;16.36;100.00;98591.44;5011341;28;20664;-81
2022/09/01 02:50:40;;;;;;;37.50;25.97;;;;;;;18.40;100.00;98923.72;5014839;28;20643;-81
2022/09/01 02:53:08;;;;;;;42.90;27.30;;;;;;;17.13;100.00;98736.88;5011615;28;20248;-81
2022/09/01 02:55:38;;;;;;;39.43;26.47;;;;;;;18.13;100.00;98932.09;5026431;28;20261;-81
2022/09/01 02:58:04;;;;;;;38.67;25.23;;;;;;;17.29;100.00;98758.31;5030527;28;20174;-82
2022/09/01 03:00:32;;;;;;;36.20;25.50;;;;;;;18.19;100.00;98880.91;5021595;28;20670;-82
2022/09/01 03:03:00;;;;;;;35.77;25.17;;;;;;;18.55;100.00;98932.38;5018429;28;20191;-79
2022/09/01 03:05:29;;;;;;;37.73;25.73;;;;;;;18.27;100.00;98867.28;5018743;28;20237;-80
2022/09/01 03:08:04;;;;;;;37.30;24.60;;;;;;;18.45;100.00;98904.09;5012210;28;20186;-80
2022/09/01 03:10:34;;;;;;;38.80;24.53;;;;;;;18.18;100.00;98879.22;5021739;28;20531;-80
2022/09/01 03:13:02;;;;;;;37.83;25.53;;;;;;;18.44;100.00;98928.88;5028587;28;20265;-81
2022/09/01 03:15:29;;;;;;;40.97;26.60;;;;;;;17.55;100.00;98785.78;5025354;28;20186;-81
2022/09/01 03:17:58;;;;;;;42.50;25.47;;;;;;;18.13;100.00;98889.41;5022053;28;20194;-80
2022/09/01 03:20:24;;;;;;;37.93;25.83;;;;;;;17.39;100.00;98775.41;5011247;28;20201;-80
2022/09/01 03:22:50;;;;;;;38.63;26.73;;;;;;;17.29;100.00;98755.75;5011987;28;20163;-80
2022/09/01 03:25:17;;;;;;;41.47;26.90;;;;;;;17.97;100.00;98856.03;5015962;28;20265;-80
2022/09/01 03:27:44;;;;;;;39.30;26.57;;;;;;;18.40;100.00;98941.66;5025830;28;20649;-79
2022/09/01 03:30:10;;;;;;;38.20;26.90;;;;;;;18.05;100.00;98906.44;5020874;28;20167;-80
2022/09/01 03:32:35;;;;;;;42.40;26.57;;;;;;;18.33;100.00;98943.34;5013870;28;20221;-80
2022/09/01 03:35:01;;;;;;;39.20;26.83;;;;;;;17.57;100.00;98814.84;5023971;28;20242;-79
2022/09/01 03:37:27;;;;;;;37.93;26.77;;;;;;;17.76;100.00;98832.84;5020419;28;20188;-80
2022/09/01 03:39:53;;;;;;;37.90;26.23;;;;;;;18.42;100.00;98947.66;5011188;28;20581;-80
2022/09/01 03:42:24;;;;;;;41.07;27.47;;;;;;;18.05;100.00;98898.75;5029041;28;20182;-81
2022/09/01 03:44:50;;;;;;;39.77;27.47;;;;;;;18.56;100.00;98938.38;5016425;28;20187;-80
2022/09/01 03:47:16;;;;;;;44.50;26.37;;;;;;;18.34;100.00;98877.56;5023452;28;20182;-81
2022/09/01 03:49:42;;;;;;;37.83;26.83;;;;;;;18.56;100.00;98928.97;5027433;28;20181;-80
2022/09/01 03:52:11;;;;;;;38.83;26.27;;;;;;;18.14;100.00;98850.16;5029392;28;20174;-81
2022/09/01 03:54:37;;;;;;;40.17;26.40;;;;;;;18.48;100.00;98912.69;5024062;28;20273;-81
2022/09/01 03:57:04;;;;;;;35.67;26.40;;;;;;;18.12;100.00;98872.34;5010483;28;20251;-81
2022/09/01 03:59:30;;;;;;;38.10;26.00;;;;;;;18.59;100.00;98952.06;5024071;28;20271;-80
2022/09/01 04:01:56;;;;;;;41.60;26.77;;;;;;;17.71;100.00;98871.25;5020469;28;20269;-81
2022/09/01 04:04:22;;;;;;;37.17;26.47;;;;;;;17.89;100.00;98916.59;5015053;28;20182;-82
2022/09/01 04:06:48;;;;;;;41.10;27.10;;;;;;;17.79;100.00;98913.13;5017532;28;20288;-82
2022/09/01 04:09:13;;;;;;;39.70;26.73;;;;;;;17.05;100.00;98795.66;5014697;28;20320;-82
2022/09/01 04:11:40;;;;;;;41.80;28.77;;;;;;;17.19;100.00;98811.13;5013031;28;20194;-82
2022/09/01 04:14:09;;;;;;;40.73;28.47;;;;;;;17.29;100.00;98832.50;5014024;28;20256;-82
2022/09/01 04:19:25;;;;;;;40.77;27.40;;;;;;;17.92;100.00;98904.66;5015517;28;20228;-81
2022/09/01 04:22:00;;;;;;;40.77;26.87;;;;;;;17.09;100.00;98753.03;5012068;28;20202;-82
2022/09/01 04:24:29;;;;;;;46.60;28.70;;;;;;;18.25;100.00;98940.75;5022879;28;20591;-82
2022/09/01 04:26:57;;;;;;;43.67;27.17;;;;;;;17.86;100.00;98843.16;5028674;28;20720;-81
2022/09/01 04:29:26;;;;;;;37.73;25.97;;;;;;;17.67;100.00;98785.88;5028285;28;20197;-84
2022/09/01 04:32:01;;;;;;;40.93;26.40;;;;;;;18.62;100.00;98944.34;5019306;28;20799;-81
2022/09/01 04:34:27;;;;;;;36.83;26.30;;;;;;;17.72;100.00;98839.66;5030833;28;20276;-81
2022/09/01 04:36:54;;;;;;;39.13;26.03;;;;;;;18.32;100.00;98945.91;5030751;28;20189;-82
2022/09/01 04:39:21;;;;;;;40.40;26.83;;;;;;;17.45;100.00;98783.13;5030255;28;20206;-82
2022/09/01 04:41:48;;;;;;;44.33;27.03;;;;;;;18.45;100.00;98940.84;5029507;28;20193;-82
2022/09/01 04:44:15;;;;;;;41.13;26.57;;;;;;;17.98;100.00;98856.03;5011831;28;20187;-81
2022/09/01 04:46:45;;;;;;;44.33;26.47;;;;;;;18.54;100.00;98946.03;5017220;28;20187;-80
2022/09/01 04:49:14;;;;;;;43.40;26.53;;;;;;;18.79;100.00;98952.13;5022171;28;20185;-81
2022/09/01 04:51:43;;;;;;;37.50;25.57;;;;;;;18.82;100.00;98934.19;5014497;28;20650;-80
2022/09/01 04:54:13;;;;;;;40.90;26.93;;;;;;;18.68;100.00;98895.66;5011156;28;20244;-79
2022/09/01 04:56:41;;;;;;;39.23;25.87;;;;;;;19.00;100.00;98959.03;5018944;28;20182;-80
2022/09/01 04:59:09;;;;;;;42.07;26.33;;;;;;;19.22;100.00;98958.25;5028952;28;20198;-82
2022/09/01 05:01:45;;;;;;;38.23;25.83;;;;;;;18.49;100.00;98863.13;5016393;28;20194;-81
2022/09/01 05:04:21;;;;;;;36.97;25.63;;;;;;;18.75;100.00;98933.31;5023663;28;20235;-81
2022/09/01 05:06:53;;;;;;;38.97;25.57;;;;;;;18.89;100.00;98900.00;5026554;28;20190;-80
2022/09/01 05:09:19;;;;;;;36.17;24.93;;;;;;;18.82;100.00;98908.53;5028763;28;20268;-81
2022/09/01 05:11:45;;;;;;;35.47;23.40;;;;;;;18.37;100.00;98801.56;5016186;28;20285;-81
2022/09/01 05:14:12;;;;;;;33.43;21.27;;;;;;;19.00;100.00;98912.88;5019005;28;20206;-81
2022/09/01 05:16:41;;;;;;;30.60;20.27;;;;;;;19.42;100.00;98954.88;5019433;28;20291;-81
2022/09/01 05:19:13;;;;;;;28.00;19.90;;;;;;;19.22;100.00;98907.78;5024376;28;20217;-81
2022/09/01 05:21:48;;;;;;;29.63;20.33;;;;;;;19.60;100.00;98948.06;5016230;28;20863;-81
2022/09/01 05:24:17;;;;;;;26.93;19.70;;;;;;;19.74;100.00;98948.91;5030738;28;20177;-81
2022/09/01 05:26:46;;;;;;;29.90;20.00;;;;;;;19.56;100.00;98947.19;5030620;28;20276;-81
2022/09/01 05:29:12;;;;;;;32.33;21.97;;;;;;;19.24;100.00;98892.38;5030147;28;20197;-82
2022/09/01 05:31:42;;;;;;;35.03;25.20;;;;;;;19.54;100.00;98928.38;5012830;28;20197;-81
2022/09/01 05:34:08;;;;;;;33.93;23.50;;;;;;;19.47;100.00;98895.84;5011073;28;20213;-81
2022/09/01 05:36:36;;;;;;;31.10;22.73;;;;;;;19.40;100.00;98850.47;5011353;28;20269;-85
2022/09/01 05:39:04;;;;;;;33.03;22.37;;;;;;;18.44;100.00;98653.75;5027978;28;20219;-84
2022/09/01 05:41:32;;;;;;;29.40;22.67;;;;;;;20.32;100.00;98942.88;5032677;28;20265;-86
2022/09/01 05:43:58;;;;;;;31.10;22.23;;;;;;;20.37;100.00;98902.56;5031608;28;20269;-86
2022/09/01 05:46:26;;;;;;;28.23;21.13;;;;;;;20.45;99.40;98893.13;5026816;28;20632;-85
2022/09/01 05:48:53;;;;;;;30.40;19.53;;;;;;;19.88;98.48;98762.22;5029486;28;20190;-86
2022/09/01 05:51:22;;;;;;;31.67;19.60;;;;;;;21.52;97.11;98979.22;5030480;28;20217;-87
2022/09/01 05:53:51;;;;;;;34.00;19.87;;;;;;;21.62;95.46;98974.84;5016799;28;20198;-86
2022/09/01 06:32:15;;;;;;;22.60;15.47;;;;;;;20.95;83.12;98625.22;5487307;23;20312;-85
2022/09/01 06:34:50;;;;;;;26.23;15.60;;;;;;;23.12;83.30;98978.50;4985040;28;20246;-88
2022/09/01 06:37:21;;;;;;;25.40;15.70;;;;;;;22.90;83.63;98946.97;4990898;28;20245;-86
2022/09/01 06:39:47;;;;;;;26.80;17.43;;;;;;;23.07;81.47;98870.13;4999419;28;20692;-87
2022/09/01 06:42:14;;;;;;;21.03;15.57;;;;;;;22.95;79.89;98846.19;5002499;28;20175;-87
2022/09/01 06:44:39;;;;;;;21.37;15.50;;;;;;;23.90;78.83;98930.78;4998444;28;20637;-89
2022/09/01 06:47:06;;;;;;;20.17;15.40;;;;;;;23.53;79.34;98877.16;4994700;28;20182;-88
2022/09/01 06:49:33;;;;;;;23.37;15.47;;;;;;;22.38;78.15;98626.84;5003945;28;20578;-89
2022/09/01 06:52:03;;;;;;;21.13;14.53;;;;;;;22.45;79.40;98757.41;4990834;28;20203;-89
2022/09/01 06:54:33;;;;;;;22.27;15.73;;;;;;;20.09;79.63;98361.22;4991892;28;20256;-90
2022/09/01 06:57:02;;;;;;;22.67;15.83;;;;;;;23.97;79.18;98962.59;4991691;28;20192;-89
2022/09/01 06:59:30;;;;;;;25.13;16.07;;;;;;;22.74;78.27;98664.94;4999626;28;20218;-88
2022/09/01 07:01:58;;;;;;;19.80;15.77;;;;;;;23.27;78.43;98775.06;5018524;28;20186;-87
2022/09/01 07:04:30;;;;;;;23.57;16.67;;;;;;;24.81;77.63;98977.44;4996678;28;20174;-89
2022/09/01 07:06:56;;;;;;;23.00;16.00;;;;;;;23.42;77.86;98776.59;5003380;28;20537;-87
2022/09/01 07:09:22;;;;;;;23.17;16.33;;;;;;;24.13;79.07;98880.44;4993364;28;20332;-87
2022/09/01 07:11:58;;;;;;;21.30;17.13;;;;;;;25.28;77.23;98985.06;4985151;28;20311;-89
2022/09/01 07:14:24;;;;;;;18.83;15.90;;;;;;;23.84;76.61;98721.47;4987350;28;20214;-90
2022/09/01 07:16:58;;;;;;;23.37;16.50;;;;;;;20.99;76.06;98250.31;4990118;28;20198;-88
2022/09/01 07:19:27;;;;;;;22.73;16.63;;;;;;;22.04;76.64;98435.75;4995043;28;20301;-88
2022/09/01 07:22:04;;;;;;;18.77;16.23;;;;;;;23.46;75.49;98600.78;4997390;28;20272;-88
2022/09/01 07:24:30;;;;;;;20.37;15.80;;;;;;;23.65;74.39;98587.50;4994439;28;20189;-87
2022/09/01 07:27:00;;;;;;;23.77;16.20;;;;;;;25.55;73.76;98864.38;5012539;28;20191;-86
2022/09/01 07:29:29;;;;;;;20.70;15.33;;;;;;;23.73;73.54;98606.28;4997885;28;20174;-88
2022/09/01 07:31:58;;;;;;;18.47;15.07;;;;;;;22.94;72.78;98465.00;4986991;28;20278;-88
2022/09/01 07:34:25;;;;;;;21.47;16.00;;;;;;;22.62;73.32;98393.38;5000896;28;20195;-88
2022/09/01 07:36:57;;;;;;;21.77;15.48;;;;;;;23.84;70.54;98522.41;4984924;28;20246;-88
2022/09/01 07:39:23;;;;;;;18.80;14.80;;;;;;;25.35;72.18;98830.28;5020763;28;20840;-87
2022/09/01 07:41:48;;;;;;;20.37;14.73;;;;;;;25.28;70.60;98766.53;5022655;28;20171;-87
2022/09/01 07:44:14;;;;;;;22.98;15.35;;;;;;;25.85;69.42;98772.78;5010881;28;20195;-89
2022/09/01 07:46:40;;;;;;;20.95;13.95;;;;;;;26.17;68.94;98832.47;5025818;28;20188;-88
2022/09/01 07:49:06;;;;;;;20.88;14.20;;;;;;;26.77;67.68;98873.13;5010148;28;20699;-89
2022/09/01 07:51:33;;;;;;;16.98;13.52;;;;;;;26.84;66.12;98861.66;5021410;28;20179;-87
2022/09/01 07:54:01;;;;;;;22.00;14.45;;;;;;;27.69;66.27;98952.63;4991621;28;20187;-88
2022/09/01 07:56:29;;;;;;;19.88;13.70;;;;;;;27.70;64.42;98904.88;4980777;28;20187;-88
2022/09/01 07:58:56;;;;;;;19.92;13.73;;;;;;;27.41;64.34;98848.63;4998145;28;20180;-89
2022/09/01 08:01:25;;;;;;;17.35;13.38;;;;;;;27.46;65.68;98949.00;4988027;28;20176;-88
2022/09/01 08:03:53;;;;;;;18.90;13.43;;;;;;;27.82;65.14;98953.91;4998338;28;20191;-88
2022/09/01 08:06:23;;;;;;;20.33;13.68;;;;;;;28.02;64.34;98962.78;4980311;28;20189;-89
2022/09/01 08:08:50;;;;;;;16.70;13.05;;;;;;;26.95;64.08;98849.19;4979761;28;20245;-88
2022/09/01 08:11:23;;;;;;;17.67;13.43;;;;;;;27.07;65.72;98937.19;5001279;28;20190;-87
2022/09/01 08:13:51;;;;;;;15.75;13.07;;;;;;;26.63;64.72;98815.53;4986910;28;20611;-87
2022/09/01 08:16:16;;;;;;;18.10;13.15;;;;;;;27.70;62.72;98839.84;4994327;28;20190;-87
2022/09/01 08:18:43;;;;;;;17.45;12.85;;;;;;;28.09;61.77;98947.81;5018705;28;20277;-89
2022/09/01 08:21:11;;;;;;;16.48;12.60;;;;;;;28.22;62.33;98941.28;5020715;28;20510;-87
2022/09/01 08:23:37;;;;;;;14.88;11.45;;;;;;;28.64;60.15;98952.81;5018953;28;20189;-86
2022/09/01 08:26:05;;;;;;;17.08;11.25;;;;;;;28.88;58.23;98892.84;5018423;28;20247;-89
2022/09/01 08:28:32;;;;;;;14.27;11.40;;;;;;;29.20;57.24;98931.56;5015627;28;20228;-89
2022/09/01 08:30:58;;;;;;;15.85;11.68;;;;;;;29.02;57.66;98968.78;5016575;28;20191;-87
2022/09/01 08:33:25;;;;;;;14.75;12.20;;;;;;;29.17;57.41;98929.09;5017522;28;20219;-87
2022/09/01 08:35:51;;;;;;;15.20;11.85;;;;;;;28.45;57.94;98812.84;5004693;28;20186;-89
2022/09/01 08:38:32;;;;;;;14.70;11.93;;;;;;;29.24;57.78;98959.25;4999432;28;20565;-88
2022/09/01 08:40:59;;;;;;;16.33;12.10;;;;;;;29.13;58.40;98904.88;4998405;28;20214;-89
2022/09/01 08:43:36;;;;;;;19.35;12.20;;;;;;;28.63;59.12;98942.44;5001291;28;20225;-88
2022/09/01 08:46:17;;;;;;;20.30;12.18;;;;;;;28.12;58.71;98801.94;5015584;28;20186;-88
2022/09/01 08:48:47;;;;;;;17.13;12.23;;;;;;;29.08;58.51;98937.25;4995212;28;20181;-88
2022/09/01 08:51:22;;;;;;;17.30;12.27;;;;;;;29.26;58.55;98928.75;5013056;28;20193;-87
2022/09/01 08:54:29;;;;;;;14.75;12.38;;;;;;;29.18;58.08;98891.66;5033968;28;20193;-86
2022/09/01 08:57:00;;;;;;;16.80;12.10;;;;;;;30.06;56.51;98930.69;5004757;28;20206;-89
2022/09/01 08:59:27;;;;;;;16.55;11.68;;;;;;;29.68;55.95;98808.75;4991547;28;20215;-89
2022/09/01 09:02:23;;;;;;;20.00;11.88;;;;;;;30.04;55.86;98922.06;4987846;28;20230;-89
2022/09/01 09:05:20;;;;;;;20.08;12.18;;;;;;;30.26;55.33;98921.97;4978927;28;20199;-89
2022/09/01 09:08:02;;;;;;;19.13;12.23;;;;;;;30.51;54.30;98890.44;4973079;28;20226;-87
2022/09/01 09:11:24;;;;;;;17.45;11.90;;;;;;;30.45;54.47;98920.28;4956231;28;20303;-90
2022/09/01 09:14:06;;;;;;;17.88;11.25;;;;;;;29.87;55.72;98923.69;4898946;29;20246;-88
2022/09/01 09:16:37;;;;;;;15.25;10.65;;;;;;;29.80;55.94;98923.09;4897121;29;20209;-86
2022/09/01 09:19:09;;;;;;;14.95;10.75;;;;;;;30.19;54.67;98847.44;4890008;29;20357;-88
2022/09/01 09:21:38;;;;;;;16.83;11.50;;;;;;;29.98;53.89;98785.69;4878968;29;20352;-88
2022/09/01 09:24:51;;;;;;;16.90;10.38;;;;;;;30.59;53.53;98910.06;4879716;29;20654;-88
2022/09/01 09:27:32;;;;;;;15.68;10.93;;;;;;;28.70;54.49;98638.22;4901107;29;20212;-89
2022/09/01 09:30:00;;;;;;;14.63;10.60;;;;;;;30.57;54.08;98880.56;4903669;29;20277;-87
2022/09/01 09:32:41;;;;;;;18.05;10.05;;;;;;;31.03;52.50;98899.34;4906264;29;20228;-88
2022/09/01 09:35:25;;;;;;;14.15;9.80;;;;;;;31.09;52.70;98910.41;4927698;29;20262;-85
2022/09/01 09:37:52;;;;;;;12.02;9.05;;;;;;;30.96;52.23;98826.41;4894141;29;20620;-88
2022/09/01 09:40:23;;;;;;;15.43;9.52;;;;;;;30.92;51.69;98777.81;4922313;29;20262;-85
2022/09/01 09:42:54;;;;;;;15.35;9.52;;;;;;;31.12;51.93;98799.53;4919068;29;20200;-90
2022/09/01 09:45:26;;;;;;;13.15;9.05;;;;;;;31.91;50.42;98901.13;4951702;28;20214;-82
2022/09/01 09:47:54;;;;;;;14.98;10.00;;;;;;;31.75;50.80;98884.50;4971141;28;20190;-83
2022/09/01 09:50:42;;;;;;;12.88;9.25;;;;;;;31.82;50.36;98893.72;4970970;28;20197;-82
2022/09/01 09:53:14;;;;;;;14.80;9.43;;;;;;;31.45;50.91;98881.63;4968067;28;20205;-82
2022/09/01 09:55:59;;;;;;;12.77;8.60;;;;;;;31.29;50.79;98864.94;4969577;28;20213;-81
2022/09/01 09:58:28;;;;;;;15.13;8.55;;;;;;;31.12;50.47;98836.16;4968696;28;20195;-81
2022/09/01 10:01:24;;;;;;;11.95;8.63;;;;;;;31.96;48.74;98876.41;4969379;28;20298;-81
2022/09/01 10:04:00;;;;;;;10.73;8.05;;;;;;;31.79;48.78;98865.06;4937734;29;20769;-81
2022/09/01 10:06:40;;;;;;;12.27;8.75;;;;;;;31.76;49.07;98865.22;4946792;29;20203;-82
2022/09/01 10:09:29;;;;;;;13.20;8.80;;;;;;;32.10;48.82;98866.09;4948862;29;20196;-81
2022/09/01 10:11:56;;;;;;;10.80;8.70;;;;;;;31.26;49.57;98765.72;4914634;29;20878;-82
2022/09/01 10:14:40;;;;;;;14.40;8.48;;;;;;;31.70;49.00;98845.44;4919598;29;20204;-79
2022/09/01 10:17:33;;;;;;;14.43;8.50;;;;;;;31.67;49.44;98856.09;4918480;29;20196;-82
2022/09/01 10:20:07;;;;;;;12.23;8.98;;;;;;;32.07;48.57;98850.53;4873638;29;20269;-83
2022/09/01 10:22:35;;;;;;;14.20;8.75;;;;;;;32.24;47.93;98851.41;4874009;29;20817;-84
2022/09/01 10:25:01;;;;;;;13.75;8.57;;;;;;;31.86;49.57;98830.66;4873986;29;20215;-82
2022/09/01 10:27:31;;;;;;;17.42;9.30;;;;;;;32.05;49.16;98822.72;4876657;29;20213;-83
2022/09/01 10:30:02;;;;;;;14.00;9.05;;;;;;;32.35;48.88;98849.91;4873452;29;20215;-82
2022/09/01 10:32:37;;;;;;;15.40;9.98;;;;;;;31.22;49.58;98715.31;4873125;29;20238;-82
2022/09/01 10:35:03;;;;;;;14.98;9.60;;;;;;;31.96;49.44;98826.63;4874901;29;20282;-84
2022/09/01 10:37:30;;;;;;;10.63;9.15;;;;;;;31.68;50.24;98826.34;4863385;29;20231;-83
2022/09/01 10:40:14;;;;;;;13.60;9.55;;;;;;;31.67;50.42;98839.53;4873571;29;20237;-83
2022/09/01 10:42:42;;;;;;;14.52;9.10;;;;;;;31.80;49.95;98817.88;4872289;29;20340;-81
2022/09/01 10:45:39;;;;;;;19.30;9.23;;;;;;;32.37;48.66;98837.56;4873894;29;20275;-82
2022/09/01 10:48:19;;;;;;;14.63;8.93;;;;;;;32.12;49.84;98834.56;4832032;29;20204;-82
2022/09/01 10:50:48;;;;;;;13.85;8.25;;;;;;;31.78;50.32;98826.75;4857917;29;20219;-82
2022/09/01 10:53:32;;;;;;;14.15;9.30;;;;;;;31.58;51.83;98832.13;4853057;29;20230;-81
2022/09/01 10:56:23;;;;;;;12.07;9.18;;;;;;;32.00;50.53;98825.56;4860561;29;20237;-82
2022/09/01 10:59:04;;;;;;;14.77;9.02;;;;;;;31.99;50.91;98830.88;4882598;29;20205;-82
2022/09/01 11:01:49;;;;;;;14.75;8.80;;;;;;;31.82;50.22;98808.16;4892269;29;20609;-82
2022/09/01 11:04:16;;;;;;;13.65;9.02;;;;;;;32.00;50.63;98822.94;4854599;29;20218;-83
2022/09/01 11:06:57;;;;;;;11.73;9.18;;;;;;;32.10;50.00;98821.56;4840749;29;20336;-83
2022/09/01 11:09:25;;;;;;;14.38;9.10;;;;;;;31.57;50.84;98755.38;4836386;29;20200;-83
2022/09/01 11:12:19;;;;;;;15.77;9.75;;;;;;;32.36;50.41;98809.66;4836656;29;20205;-83
2022/09/01 11:14:49;;;;;;;15.75;9.80;;;;;;;32.48;50.26;98806.38;4837364;29;20212;-83
2022/09/01 11:17:36;;;;;;;20.20;9.70;;;;;;;32.51;49.68;98782.63;4838518;29;20203;-83
2022/09/01 11:20:32;;;;;;;13.35;9.15;;;;;;;31.82;49.67;98747.09;4836187;29;20299;-82
2022/09/01 11:23:04;;;;;;;12.85;9.25;;;;;;;31.75;49.64;98803.34;4836880;29;20208;-83
2022/09/01 11:25:35;;;;;;;14.98;8.80;;;;;;;31.79;49.50;98787.38;4850168;29;20216;-83
2022/09/01 11:28:34;;;;;;;13.07;8.77;;;;;;;32.25;49.11;98796.28;4835882;29;20377;-83
2022/09/01 11:31:05;;;;;;;11.98;8.80;;;;;;;32.67;48.42;98799.22;4854409;29;20335;-83
2022/09/01 11:34:02;;;;;;;11.00;8.38;;;;;;;31.76;50.10;98735.19;4853361;29;20231;-82
2022/09/01 11:36:34;;;;;;;11.43;8.10;;;;;;;31.98;49.78;98795.97;4895916;29;20655;-83
2022/09/01 11:39:02;;;;;;;12.13;8.32;;;;;;;32.30;49.21;98791.69;4899637;29;20268;-84
2022/09/01 11:41:40;;;;;;;14.38;8.77;;;;;;;32.95;47.28;98788.03;4961375;28;20199;-82
2022/09/01 11:44:23;;;;;;;15.15;8.13;;;;;;;33.49;46.50;98791.03;5007143;28;20190;-81
2022/09/01 11:46:52;;;;;;;12.05;7.07;;;;;;;33.84;45.52;98758.31;5008660;28;20712;-82
2022/09/01 11:49:33;;;;;;;10.55;7.10;;;;;;;33.65;44.75;98695.53;5009826;28;20297;-82
2022/09/01 11:52:00;;;;;;;11.98;7.10;;;;;;;34.69;43.29;98789.81;4990349;28;20289;-82
2022/09/01 11:54:27;;;;;;;10.85;7.45;;;;;;;34.85;42.10;98785.22;5008623;28;20182;-83
2022/09/01 11:56:53;;;;;;;11.95;7.40;;;;;;;34.82;41.26;98740.72;5008268;28;20209;-84
2022/09/01 11:59:33;;;;;;;9.90;6.80;;;;;;;35.30;40.34;98782.22;5008774;28;20768;-83
2022/09/01 12:02:00;;;;;;;11.25;7.10;;;;;;;34.66;39.93;98675.13;5008731;28;20179;-82
2022/09/01 12:04:32;;;;;;;8.68;6.88;;;;;;;35.60;39.44;98762.72;5008974;28;20187;-83
2022/09/01 12:07:12;;;;;;;11.40;6.50;;;;;;;35.63;38.62;98738.81;5008871;28;20182;-83
2022/09/01 12:09:41;;;;;;;14.32;7.10;;;;;;;35.60;38.83;98762.72;5008687;28;20670;-83
2022/09/01 12:12:27;;;;;;;10.60;6.95;;;;;;;35.58;38.41;98749.63;5006973;28;20190;-83
2022/09/01 12:15:20;;;;;;;11.43;7.32;;;;;;;35.29;38.54;98753.38;5009185;28;20188;-82